Time;durP1;ratioP1;P1;durP2;ratioP2;P2;SDS_P1;SDS_P2;PMS_P1;PMS_P2;Temp;Humidity;BMP_temperature;BMP_pressure;BME280_temperature;BME280_humidity;BME280_pressure;Samples;Min_cycle;Max_cycle;Signal;HPM_P1;HPM_P2
2020/12/21 05:52:16;;;;;;;1999.90;999.90;;;1.20;99.90;;;;;;5108656;27;20565;-53
2020/12/21 05:54:43;;;;;;;1999.90;999.90;;;1.20;99.90;;;;;;5107283;28;20833;-50
2020/12/21 05:57:09;;;;;;;1999.90;999.90;;;1.30;99.90;;;;;;5106992;28;20422;-51
2020/12/21 05:59:37;;;;;;;1999.90;999.90;;;1.40;99.90;;;;;;5105521;28;20450;-51
2020/12/21 06:02:03;;;;;;;1999.90;999.90;;;1.40;99.90;;;;;;5101523;28;20588;-50
2020/12/21 06:04:41;;;;;;;1999.90;999.90;;;1.50;99.90;;;;;;5101167;22;20489;-46
2020/12/21 06:07:12;;;;;;;1999.90;999.90;;;1.60;99.90;;;;;;5082582;28;20653;-46
2020/12/21 06:09:45;;;;;;;1999.90;999.90;;;1.60;99.90;;;;;;5084353;28;20433;-45
2020/12/21 06:12:10;;;;;;;1999.90;999.90;;;1.60;99.90;;;;;;5075157;28;20433;-45
2020/12/21 06:14:39;;;;;;;1999.90;999.90;;;1.70;99.90;;;;;;5068800;28;20533;-46
2020/12/21 06:17:12;;;;;;;1999.90;999.90;;;1.70;99.90;;;;;;5074758;28;20183;-46
2020/12/21 06:19:37;;;;;;;1999.90;999.90;;;1.70;99.90;;;;;;5086408;28;20430;-46
2020/12/21 06:22:03;;;;;;;1999.90;999.90;;;1.70;99.90;;;;;;5089745;28;20435;-46
2020/12/21 06:24:38;;;;;;;1999.90;999.90;;;1.80;99.90;;;;;;5088783;28;20625;-46
2020/12/21 06:27:15;;;;;;;1999.90;999.90;;;1.80;99.90;;;;;;5082876;28;20187;-46
2020/12/21 06:29:41;;;;;;;1999.90;999.90;;;1.90;99.90;;;;;;5086973;28;20508;-46
2020/12/21 06:32:08;;;;;;;1999.90;999.90;;;1.90;99.90;;;;;;5085151;28;20448;-46
2020/12/21 06:34:34;;;;;;;1999.90;999.90;;;1.90;99.90;;;;;;5088691;28;20759;-45
2020/12/21 06:37:06;;;;;;;1999.90;999.90;;;1.90;99.90;;;;;;5098913;28;20460;-46
2020/12/21 06:39:33;;;;;;;1999.90;999.90;;;1.90;99.90;;;;;;5084072;28;20232;-45
2020/12/21 06:42:06;;;;;;;1999.90;999.90;;;1.90;99.90;;;;;;5078652;28;20503;-46
2020/12/21 06:44:33;;;;;;;1999.90;999.90;;;1.90;99.90;;;;;;5088683;28;20431;-47
2020/12/21 06:47:00;;;;;;;1999.90;999.90;;;2.00;99.90;;;;;;5080667;28;20437;-47
2020/12/21 06:49:26;;;;;;;1999.90;999.90;;;2.00;99.90;;;;;;5083047;28;20434;-46
2020/12/21 06:51:52;;;;;;;1999.90;999.90;;;2.00;99.90;;;;;;5082649;28;20493;-46
2020/12/21 06:54:19;;;;;;;1999.90;999.90;;;2.00;99.90;;;;;;5082668;28;20973;-46
2020/12/21 06:56:47;;;;;;;1999.90;999.90;;;2.00;99.90;;;;;;5079688;28;20434;-46
2020/12/21 06:59:18;;;;;;;1999.90;999.90;;;2.00;99.90;;;;;;5082552;28;20512;-47
2020/12/21 07:01:45;;;;;;;1999.90;999.90;;;2.00;99.90;;;;;;5082983;28;20442;-46
2020/12/21 07:04:19;;;;;;;1999.90;999.90;;;2.00;99.90;;;;;;5070458;28;20477;-46
2020/12/21 07:06:45;;;;;;;1999.90;999.90;;;2.00;99.90;;;;;;5088604;28;20959;-47
2020/12/21 07:09:13;;;;;;;1999.90;999.90;;;2.10;99.90;;;;;;5075508;28;20445;-46
2020/12/21 07:11:40;;;;;;;1999.90;999.90;;;2.00;99.90;;;;;;5064357;28;20834;-46
2020/12/21 07:14:06;;;;;;;1999.90;999.90;;;2.00;99.90;;;;;;5073504;28;20533;-47
2020/12/21 07:16:31;;;;;;;1999.90;999.90;;;2.00;99.90;;;;;;5060411;28;20529;-46
2020/12/21 07:18:57;;;;;;;1999.90;999.90;;;2.10;99.90;;;;;;5069974;28;20505;-46
2020/12/21 07:21:23;;;;;;;1999.90;999.90;;;2.10;99.90;;;;;;5080273;28;20184;-46
2020/12/21 07:23:49;;;;;;;1999.90;999.90;;;2.10;99.90;;;;;;5090146;28;20234;-47
2020/12/21 07:26:16;;;;;;;1999.90;999.90;;;2.10;99.90;;;;;;5074761;28;20176;-46
2020/12/21 07:28:48;;;;;;;1999.90;999.90;;;2.10;99.90;;;;;;5074505;28;20411;-46
2020/12/21 07:31:16;;;;;;;1999.90;999.90;;;2.10;99.90;;;;;;5074070;28;20487;-46
2020/12/21 07:33:52;;;;;;;1999.90;999.90;;;2.10;99.90;;;;;;5074223;28;20443;-46
2020/12/21 07:36:20;;;;;;;1999.90;999.90;;;2.20;99.90;;;;;;5074503;28;20406;-46
2020/12/21 07:38:45;;;;;;;1999.90;999.90;;;2.20;99.90;;;;;;5075843;28;20454;-45
2020/12/21 07:41:11;;;;;;;1999.90;999.90;;;2.30;99.90;;;;;;5075082;28;20501;-44
2020/12/21 07:44:01;;;;;;;1999.90;999.90;;;2.30;99.90;;;;;;5074499;28;20277;-45
2020/12/21 07:46:35;;;;;;;1999.90;999.90;;;2.30;99.90;;;;;;5026434;28;20435;-45
2020/12/21 07:49:01;;;;;;;1999.90;999.90;;;2.40;99.90;;;;;;5075918;28;20431;-45
2020/12/21 07:51:27;;;;;;;1999.90;999.90;;;2.50;99.90;;;;;;5074130;28;20466;-45
2020/12/21 07:53:53;;;;;;;1999.90;999.90;;;2.50;99.90;;;;;;5074157;28;20931;-44
2020/12/21 07:56:18;;;;;;;1999.90;999.90;;;2.40;99.90;;;;;;5074666;28;20174;-45
2020/12/21 07:58:47;;;;;;;1999.90;999.90;;;2.40;99.90;;;;;;5065339;28;20427;-45
2020/12/21 08:01:21;;;;;;;1999.90;999.90;;;2.50;99.90;;;;;;5068543;28;20226;-46
2020/12/21 08:03:50;;;;;;;1999.90;999.90;;;2.70;99.90;;;;;;5072754;28;20478;-45
2020/12/21 08:06:18;;;;;;;1999.90;999.90;;;2.70;99.90;;;;;;5073477;28;20432;-45
2020/12/21 08:08:44;;;;;;;1999.90;999.90;;;2.80;99.90;;;;;;5068846;28;20446;-45
2020/12/21 08:11:15;;;;;;;1999.90;999.90;;;2.90;99.90;;;;;;5069656;28;20459;-45
2020/12/21 15:18:32;;;;;;;1999.90;999.90;;;3.20;99.90;;;;;;5102759;27;20601;-47
2020/12/21 15:20:58;;;;;;;1999.90;999.90;;;3.20;99.90;;;;;;5103663;28;20604;-47
2020/12/21 15:23:24;;;;;;;1999.90;999.90;;;3.30;99.90;;;;;;5108421;27;20449;-47
2020/12/21 15:25:50;;;;;;;1999.90;999.90;;;3.40;99.90;;;;;;5102753;28;20492;-49
2020/12/21 15:28:16;;;;;;;1999.90;999.90;;;3.50;99.90;;;;;;5101594;28;20511;-48
2020/12/21 15:30:41;;;;;;;1999.90;999.90;;;3.50;99.90;;;;;;5102373;28;20421;-49
2020/12/21 15:33:07;;;;;;;1999.90;999.90;;;3.50;99.90;;;;;;5099407;28;21325;-49
2020/12/21 15:35:34;;;;;;;1999.90;999.90;;;3.50;99.90;;;;;;5102207;28;20183;-49
2020/12/21 15:38:01;;;;;;;1999.90;999.90;;;3.60;99.90;;;;;;5101631;28;21347;-49
2020/12/21 15:40:27;;;;;;;1999.90;999.90;;;3.60;99.90;;;;;;5103015;28;20441;-46
2020/12/21 15:42:53;;;;;;;1999.90;999.90;;;3.50;99.90;;;;;;5100981;28;20449;-48
2020/12/21 15:45:19;;;;;;;1999.90;999.90;;;3.50;99.90;;;;;;5102752;28;20195;-47
2020/12/21 15:47:45;;;;;;;1999.90;999.90;;;3.50;99.90;;;;;;5098867;28;20449;-49
2020/12/21 15:50:11;;;;;;;1999.90;999.90;;;3.50;99.90;;;;;;5102782;28;20433;-47
2020/12/21 15:52:38;;;;;;;1999.90;999.90;;;3.50;99.90;;;;;;5101070;28;20904;-48
2020/12/21 15:55:05;;;;;;;1999.90;999.90;;;3.50;99.90;;;;;;5099684;28;20731;-48
2020/12/21 15:57:31;;;;;;;1999.90;999.90;;;3.40;99.90;;;;;;5095266;28;21113;-49
2020/12/21 15:59:57;;;;;;;1999.90;999.90;;;3.40;99.90;;;;;;5084850;28;20437;-49
2020/12/21 16:02:22;;;;;;;1999.90;999.90;;;3.50;99.90;;;;;;5098762;28;20711;-48
2020/12/21 16:04:48;;;;;;;1999.90;999.90;;;3.50;99.90;;;;;;5106732;28;20290;-48
2020/12/21 16:07:14;;;;;;;1999.90;999.90;;;3.50;99.90;;;;;;5085815;28;20264;-48
2020/12/21 16:09:42;;;;;;;1999.90;999.90;;;3.50;99.90;;;;;;5102779;28;20969;-49
2020/12/21 16:12:08;;;;;;;1999.90;999.90;;;3.50;99.90;;;;;;5095719;28;20426;-45
2020/12/21 16:14:34;;;;;;;1999.90;999.90;;;3.60;99.90;;;;;;5104563;28;20470;-47
2020/12/21 16:17:00;;;;;;;1999.90;999.90;;;3.50;99.90;;;;;;5102756;28;20476;-46
2020/12/21 16:19:26;;;;;;;1999.90;999.90;;;3.50;99.90;;;;;;5104872;28;20902;-46
2020/12/21 16:21:52;;;;;;;1999.90;999.90;;;3.50;99.90;;;;;;5099998;28;20438;-46
2020/12/21 16:24:18;;;;;;;1999.90;999.90;;;3.60;99.90;;;;;;5103729;28;20495;-46
2020/12/21 16:26:44;;;;;;;1999.90;999.90;;;3.60;99.90;;;;;;5107656;28;20188;-48
2020/12/21 16:29:09;;;;;;;1999.90;999.90;;;3.50;99.90;;;;;;5096018;28;20468;-49
2020/12/21 16:31:35;;;;;;;1999.90;999.90;;;3.50;99.90;;;;;;5088929;28;20274;-46
2020/12/21 16:34:01;;;;;;;1999.90;999.90;;;3.50;99.90;;;;;;5090149;28;20322;-47
2020/12/21 16:36:26;;;;;;;1999.90;999.90;;;3.50;99.90;;;;;;5090418;28;20204;-46
2020/12/21 16:38:52;;;;;;;1999.90;999.90;;;3.50;99.90;;;;;;5088908;28;20228;-47
2020/12/21 16:41:23;;;;;;;1999.90;999.90;;;3.50;99.90;;;;;;5071610;28;20291;-47
2020/12/21 16:43:49;;;;;;;1999.90;999.90;;;3.50;99.90;;;;;;5090145;28;20680;-46
2020/12/21 16:46:27;;;;;;;1999.90;999.90;;;3.50;99.90;;;;;;5088407;28;21036;-46
2020/12/21 16:48:53;;;;;;;1999.90;999.90;;;3.50;99.90;;;;;;5091067;28;20489;-47
2020/12/21 16:51:19;;;;;;;1999.90;999.90;;;3.50;99.90;;;;;;5089141;28;20537;-46
2020/12/21 16:53:45;;;;;;;1999.90;999.90;;;3.60;99.90;;;;;;5085852;28;20211;-50
2020/12/21 16:56:11;;;;;;;1999.90;999.90;;;3.60;99.90;;;;;;5087262;28;20495;-49
2020/12/21 16:58:37;;;;;;;1999.90;999.90;;;3.60;99.90;;;;;;5089273;28;20446;-47
2020/12/21 17:01:03;;;;;;;1999.90;999.90;;;3.60;99.90;;;;;;5088674;28;20200;-47
2020/12/21 17:03:30;;;;;;;1999.90;999.90;;;3.60;99.90;;;;;;5088097;28;20213;-46
2020/12/21 17:05:55;;;;;;;1999.90;999.90;;;3.60;99.90;;;;;;5090258;28;21014;-50
2020/12/21 17:08:21;;;;;;;1999.90;999.90;;;3.60;99.90;;;;;;5087445;28;20517;-46
2020/12/21 17:10:47;;;;;;;1999.90;999.90;;;3.70;99.90;;;;;;5087738;28;20218;-47
2020/12/21 17:13:12;;;;;;;1999.90;999.90;;;3.70;99.90;;;;;;5088902;28;20251;-47
2020/12/21 17:15:38;;;;;;;1999.90;999.90;;;3.70;99.90;;;;;;5087689;28;20191;-46
2020/12/21 17:18:04;;;;;;;1999.90;999.90;;;3.80;99.90;;;;;;5090260;28;20215;-47
2020/12/21 17:20:30;;;;;;;1999.90;999.90;;;3.70;99.90;;;;;;5088446;28;20764;-46
2020/12/21 17:22:55;;;;;;;1999.90;999.90;;;3.70;99.90;;;;;;5087614;28;20536;-47
2020/12/21 17:25:21;;;;;;;1999.90;999.90;;;3.70;99.90;;;;;;5087706;28;20192;-46
2020/12/21 17:27:47;;;;;;;1999.90;999.90;;;3.70;99.90;;;;;;5088589;28;20716;-46
2020/12/21 17:30:12;;;;;;;1999.90;999.90;;;3.70;99.90;;;;;;5086705;28;20191;-45
2020/12/21 17:32:38;;;;;;;1999.90;999.90;;;3.60;99.90;;;;;;5087700;28;20276;-47
2020/12/21 17:35:04;;;;;;;1999.90;999.90;;;3.70;99.90;;;;;;5087980;28;20660;-47
2020/12/21 17:37:29;;;;;;;1999.90;999.90;;;3.70;99.90;;;;;;5088968;28;20211;-46
2020/12/21 17:39:55;;;;;;;1999.90;999.90;;;3.80;99.90;;;;;;5088019;28;20264;-46
2020/12/21 17:42:21;;;;;;;1999.90;999.90;;;3.80;99.90;;;;;;5086941;28;20223;-49
2020/12/21 17:44:47;;;;;;;1999.90;999.90;;;3.70;99.90;;;;;;5084817;28;20243;-47
2020/12/21 17:47:13;;;;;;;1999.90;999.90;;;3.70;99.90;;;;;;5082700;28;20187;-46
2020/12/21 17:49:39;;;;;;;1999.90;999.90;;;3.80;99.90;;;;;;5086381;28;20422;-48
2020/12/21 17:52:05;;;;;;;1999.90;999.90;;;3.80;99.90;;;;;;5081524;28;21079;-47
2020/12/21 17:54:31;;;;;;;1999.90;999.90;;;3.90;99.90;;;;;;5083773;28;20533;-47
2020/12/21 17:56:57;;;;;;;1999.90;999.90;;;3.80;99.90;;;;;;5086280;28;20208;-46
2020/12/21 17:59:23;;;;;;;1999.90;999.90;;;3.80;99.90;;;;;;5087855;28;20781;-47
2020/12/21 18:01:49;;;;;;;1999.90;999.90;;;3.80;99.90;;;;;;5066488;28;20535;-46
2020/12/21 18:04:14;;;;;;;1999.90;999.90;;;3.80;99.90;;;;;;5086552;28;20497;-46
2020/12/21 18:06:44;;;;;;;1999.90;999.90;;;3.90;99.90;;;;;;5088012;28;20194;-47
2020/12/21 18:09:10;;;;;;;1999.90;999.90;;;3.80;99.90;;;;;;5085307;28;20537;-47
2020/12/21 18:11:36;;;;;;;1999.90;999.90;;;3.80;99.90;;;;;;5086979;28;20643;-47
2020/12/21 18:14:02;;;;;;;1999.90;999.90;;;3.70;99.90;;;;;;5085055;28;21033;-48
2020/12/21 18:16:34;;;;;;;1999.90;999.90;;;3.70;99.90;;;;;;5087379;28;20216;-47
2020/12/21 18:19:00;;;;;;;1999.90;999.90;;;3.70;99.90;;;;;;5087683;28;20188;-47
2020/12/21 18:21:27;;;;;;;1999.90;999.90;;;3.70;99.90;;;;;;5086466;28;20527;-47
2020/12/21 18:23:53;;;;;;;1999.90;999.90;;;3.60;99.90;;;;;;5085031;28;20208;-48
2020/12/21 18:26:18;;;;;;;1999.90;999.90;;;3.70;99.90;;;;;;5085833;28;20438;-48
2020/12/21 18:28:44;;;;;;;1999.90;999.90;;;3.70;99.90;;;;;;5075866;28;20183;-47
2020/12/21 18:31:10;;;;;;;1999.90;999.90;;;3.70;99.90;;;;;;5088027;28;20191;-48
2020/12/21 18:33:36;;;;;;;1999.90;999.90;;;3.70;99.90;;;;;;5088049;28;20264;-48
2020/12/21 18:36:02;;;;;;;1999.90;999.90;;;3.70;99.90;;;;;;5087628;28;20439;-48
2020/12/21 18:38:28;;;;;;;1999.90;999.90;;;3.70;99.90;;;;;;5089405;28;20220;-48
2020/12/21 18:40:53;;;;;;;1999.90;999.90;;;3.70;99.90;;;;;;5085864;28;20453;-47
2020/12/21 18:43:19;;;;;;;1999.90;999.90;;;3.70;99.90;;;;;;5087261;28;20215;-48
2020/12/21 18:45:44;;;;;;;1999.90;999.90;;;3.70;99.90;;;;;;5088620;28;20196;-47
2020/12/21 18:48:10;;;;;;;1999.90;999.90;;;3.70;99.90;;;;;;5084723;28;20216;-47
2020/12/21 18:50:36;;;;;;;1999.90;999.90;;;3.70;99.90;;;;;;5085406;28;20196;-47
2020/12/21 18:53:01;;;;;;;1999.90;999.90;;;3.70;99.90;;;;;;5081986;28;20582;-47
2020/12/21 18:55:28;;;;;;;1999.90;999.90;;;3.70;99.90;;;;;;5084794;28;20193;-47
2020/12/21 18:57:54;;;;;;;1999.90;999.90;;;3.60;99.90;;;;;;5085767;28;20656;-46
2020/12/21 19:00:19;;;;;;;1999.90;999.90;;;3.60;99.90;;;;;;5080856;28;21004;-47
2020/12/21 19:02:45;;;;;;;1999.90;999.90;;;3.60;99.90;;;;;;5086005;28;20556;-47
2020/12/21 19:05:11;;;;;;;1999.90;999.90;;;3.60;99.90;;;;;;5088068;28;20173;-47
2020/12/21 19:07:36;;;;;;;1999.90;999.90;;;3.50;99.90;;;;;;5085798;28;20188;-47
2020/12/21 19:10:04;;;;;;;1999.90;999.90;;;3.50;99.90;;;;;;5087515;28;20435;-47
2020/12/21 19:12:30;;;;;;;1999.90;999.90;;;3.50;99.90;;;;;;5076703;28;20196;-48
2020/12/21 19:14:56;;;;;;;1999.90;999.90;;;3.50;99.90;;;;;;5074409;28;20445;-47
2020/12/21 19:17:21;;;;;;;1999.90;999.90;;;3.50;99.90;;;;;;5086658;28;20223;-44
2020/12/21 19:19:47;;;;;;;1999.90;999.90;;;3.40;99.90;;;;;;5086143;28;20192;-47
2020/12/21 19:22:13;;;;;;;1999.90;999.90;;;3.50;99.90;;;;;;5087090;28;20172;-47
2020/12/21 19:24:39;;;;;;;1999.90;999.90;;;3.50;99.90;;;;;;5085518;28;20208;-55
2020/12/21 19:27:05;;;;;;;1999.90;999.90;;;3.60;99.90;;;;;;5087775;28;20562;-47
2020/12/21 19:29:30;;;;;;;1999.90;999.90;;;3.60;99.90;;;;;;5087002;28;20195;-47
2020/12/21 19:31:56;;;;;;;1999.90;999.90;;;3.60;99.90;;;;;;5087260;28;20195;-47
2020/12/21 19:34:22;;;;;;;1999.90;999.90;;;3.60;99.90;;;;;;5086915;28;20309;-46
2020/12/21 19:36:47;;;;;;;1999.90;999.90;;;3.70;99.90;;;;;;5087243;28;20227;-49
2020/12/21 19:39:13;;;;;;;1999.90;999.90;;;3.70;99.90;;;;;;5087612;28;20208;-49
2020/12/21 19:41:40;;;;;;;1999.90;999.90;;;3.70;99.90;;;;;;5086975;28;20180;-48
2020/12/21 19:44:06;;;;;;;1999.90;999.90;;;3.70;99.90;;;;;;5087435;28;20251;-47
2020/12/21 19:46:35;;;;;;;1999.90;999.90;;;3.80;99.90;;;;;;5087573;28;20433;-46
2020/12/21 19:49:01;;;;;;;1999.90;999.90;;;3.70;99.90;;;;;;5087339;28;20473;-46
2020/12/21 19:51:27;;;;;;;1999.90;999.90;;;3.70;99.90;;;;;;5087353;28;20470;-47
2020/12/21 19:53:55;;;;;;;1999.90;999.90;;;3.70;99.90;;;;;;5088521;28;20454;-47
2020/12/21 19:56:21;;;;;;;1999.90;999.90;;;3.60;99.90;;;;;;5084000;28;20567;-47
2020/12/21 19:58:47;;;;;;;1999.90;999.90;;;3.70;99.90;;;;;;5083848;28;20438;-46
2020/12/21 20:01:13;;;;;;;1999.90;999.90;;;3.70;99.90;;;;;;5083769;28;20495;-47
2020/12/21 20:03:39;;;;;;;1999.90;999.90;;;3.70;99.90;;;;;;5081657;28;20739;-46
2020/12/21 20:06:05;;;;;;;1999.90;999.90;;;3.70;99.90;;;;;;5084316;28;20185;-46
2020/12/21 20:08:31;;;;;;;1999.90;999.90;;;3.70;99.90;;;;;;5083507;28;20822;-47
2020/12/21 20:10:57;;;;;;;1999.90;999.90;;;3.70;99.90;;;;;;5088724;28;20414;-47
2020/12/21 20:13:23;;;;;;;1999.90;999.90;;;3.70;99.90;;;;;;5086859;28;20212;-47
2020/12/21 20:15:49;;;;;;;1999.90;999.90;;;3.70;99.90;;;;;;5088308;28;20884;-47
2020/12/21 20:18:16;;;;;;;1999.90;999.90;;;3.80;99.90;;;;;;5086149;28;20469;-47
2020/12/21 20:20:42;;;;;;;1999.90;999.90;;;3.80;99.90;;;;;;5089863;28;20476;-46
2020/12/21 20:23:08;;;;;;;1999.90;999.90;;;3.80;99.90;;;;;;5090029;28;20441;-47
2020/12/21 20:25:33;;;;;;;1999.90;999.90;;;3.90;99.90;;;;;;5090321;28;20418;-46
2020/12/21 20:27:59;;;;;;;1999.90;999.90;;;3.90;99.90;;;;;;5089364;28;21018;-47
2020/12/21 20:30:25;;;;;;;1999.90;999.90;;;3.80;99.90;;;;;;5088197;28;20184;-47
2020/12/21 20:32:56;;;;;;;1999.90;999.90;;;3.80;99.90;;;;;;5089192;28;20239;-47
2020/12/21 20:35:23;;;;;;;1999.90;999.90;;;3.80;99.90;;;;;;5087745;28;20486;-47
2020/12/21 20:37:53;;;;;;;1999.90;999.90;;;3.90;99.90;;;;;;5088742;28;20466;-47
2020/12/21 20:40:20;;;;;;;1999.90;999.90;;;3.90;99.90;;;;;;5087428;28;20851;-48
2020/12/21 20:42:48;;;;;;;1999.90;999.90;;;3.90;99.90;;;;;;5088437;28;20461;-46
2020/12/21 20:45:15;;;;;;;1999.90;999.90;;;3.90;99.90;;;;;;5087577;28;20441;-47
2020/12/21 20:47:41;;;;;;;1999.90;999.90;;;3.90;99.90;;;;;;5088727;28;20964;-47
2020/12/21 20:50:08;;;;;;;1999.90;999.90;;;4.00;99.90;;;;;;5087982;28;20441;-47
2020/12/21 20:52:33;;;;;;;1999.90;999.90;;;4.00;99.90;;;;;;5088426;28;20279;-47
2020/12/21 20:55:01;;;;;;;1999.90;999.90;;;4.00;99.90;;;;;;5087256;28;20521;-47
2020/12/21 20:57:26;;;;;;;1999.90;999.90;;;4.00;99.90;;;;;;5086995;28;20197;-47
2020/12/21 20:59:52;;;;;;;1999.90;999.90;;;3.90;99.90;;;;;;5088390;28;20420;-47
2020/12/21 21:02:18;;;;;;;1999.90;999.90;;;4.00;99.90;;;;;;5088257;28;20275;-47
2020/12/21 21:04:43;;;;;;;1999.90;999.90;;;4.00;99.90;;;;;;5086297;28;20212;-47
2020/12/21 21:07:12;;;;;;;1999.90;999.90;;;4.00;99.90;;;;;;5088406;28;20192;-48
2020/12/21 21:09:38;;;;;;;1999.90;999.90;;;4.10;99.90;;;;;;5089044;28;20176;-46
2020/12/21 21:12:04;;;;;;;1999.90;999.90;;;4.10;99.90;;;;;;5087235;28;20430;-45
2020/12/21 21:14:30;;;;;;;1999.90;999.90;;;4.20;99.90;;;;;;5086721;28;20200;-48
2020/12/21 21:16:55;;;;;;;1999.90;999.90;;;4.20;99.90;;;;;;5088329;28;20215;-47
2020/12/21 21:19:24;;;;;;;1999.90;999.90;;;4.20;99.90;;;;;;5085856;28;20430;-47
2020/12/21 21:21:54;;;;;;;1999.90;999.90;;;4.20;99.90;;;;;;5086868;28;20180;-46
2020/12/21 21:24:22;;;;;;;1999.90;999.90;;;4.20;99.90;;;;;;5085845;28;20456;-46
2020/12/21 21:26:53;;;;;;;1999.90;999.90;;;4.20;99.90;;;;;;5083003;28;20521;-48
2020/12/21 21:29:19;;;;;;;1999.90;999.90;;;4.20;99.90;;;;;;5085918;28;20439;-46
2020/12/21 21:31:45;;;;;;;1999.90;999.90;;;4.20;99.90;;;;;;5070462;28;20431;-46
2020/12/21 21:34:11;;;;;;;1999.90;999.90;;;4.20;99.90;;;;;;5086312;28;20525;-47
2020/12/21 21:36:37;;;;;;;1999.90;999.90;;;4.20;99.90;;;;;;5088197;28;20534;-46
2020/12/21 21:39:03;;;;;;;1999.90;999.90;;;4.20;99.90;;;;;;5086109;28;20277;-48
2020/12/21 21:41:29;;;;;;;1999.90;999.90;;;4.20;99.90;;;;;;5085536;28;20543;-48
2020/12/21 21:43:54;;;;;;;1999.90;999.90;;;4.20;99.90;;;;;;5087358;28;20451;-45
2020/12/21 21:46:20;;;;;;;1999.90;999.90;;;4.30;99.90;;;;;;5087355;28;20643;-46
2020/12/21 21:48:46;;;;;;;1999.90;999.90;;;4.30;99.90;;;;;;5086880;28;20250;-46
2020/12/21 21:51:12;;;;;;;1999.90;999.90;;;4.30;99.90;;;;;;5085588;28;20183;-45
2020/12/21 21:53:38;;;;;;;1999.90;999.90;;;4.50;99.90;;;;;;5084838;28;20438;-46
2020/12/21 21:56:04;;;;;;;1999.90;999.90;;;4.50;99.90;;;;;;5086925;28;20489;-45
2020/12/21 21:58:30;;;;;;;1999.90;999.90;;;4.60;99.90;;;;;;5088466;28;20258;-44
2020/12/21 22:00:56;;;;;;;1999.90;999.90;;;4.60;99.90;;;;;;5086203;28;21168;-45
2020/12/21 22:03:22;;;;;;;1999.90;999.90;;;4.60;99.90;;;;;;5088450;28;20495;-46
2020/12/21 22:05:48;;;;;;;1999.90;999.90;;;4.60;99.90;;;;;;5086712;28;20446;-45
2020/12/21 22:08:14;;;;;;;1999.90;999.90;;;4.70;99.90;;;;;;5087177;28;20810;-46
2020/12/21 22:10:40;;;;;;;1999.90;999.90;;;4.80;99.90;;;;;;5085829;28;20177;-46
2020/12/21 22:13:06;;;;;;;1999.90;999.90;;;4.80;99.90;;;;;;5087278;28;21178;-43
2020/12/21 22:15:32;;;;;;;1999.90;999.90;;;4.90;99.90;;;;;;5083983;28;20554;-46
2020/12/21 22:17:58;;;;;;;1999.90;999.90;;;4.90;99.90;;;;;;5086959;28;20243;-46
2020/12/21 22:20:24;;;;;;;1999.90;999.90;;;5.00;99.90;;;;;;5087777;28;20471;-47
2020/12/21 22:22:49;;;;;;;1999.90;999.90;;;5.00;99.90;;;;;;5085222;28;20602;-45
2020/12/21 22:25:15;;;;;;;1999.90;999.90;;;5.00;99.90;;;;;;5087081;28;20430;-48
2020/12/21 22:27:41;;;;;;;1999.90;999.90;;;5.00;99.90;;;;;;5086001;28;20252;-48
2020/12/21 22:30:08;;;;;;;1999.90;999.90;;;5.10;99.90;;;;;;5087764;28;20231;-47
2020/12/21 22:32:34;;;;;;;1999.90;999.90;;;5.10;99.90;;;;;;5086938;28;20430;-46
2020/12/21 22:35:00;;;;;;;1999.90;999.90;;;5.10;99.90;;;;;;5085584;28;20445;-46
2020/12/21 22:37:26;;;;;;;1999.90;999.90;;;5.10;99.90;;;;;;5086405;28;20512;-46
2020/12/21 22:39:52;;;;;;;1999.90;999.90;;;5.20;99.90;;;;;;5085746;28;20185;-45
2020/12/21 22:42:18;;;;;;;1999.90;999.90;;;5.20;99.90;;;;;;5085001;28;20446;-45
2020/12/21 22:44:43;;;;;;;1999.90;999.90;;;5.30;99.90;;;;;;5087916;28;20570;-46
2020/12/21 22:47:09;;;;;;;1999.90;999.90;;;5.30;99.90;;;;;;5087446;28;21221;-47
2020/12/21 22:49:35;;;;;;;1999.90;999.90;;;5.30;99.90;;;;;;5084803;28;20719;-47
2020/12/21 22:52:00;;;;;;;1999.90;999.90;;;5.30;99.90;;;;;;5087843;28;20436;-47
2020/12/21 22:54:26;;;;;;;1999.90;999.90;;;5.30;99.90;;;;;;5085387;28;20212;-45
2020/12/21 22:56:53;;;;;;;1999.90;999.90;;;5.40;99.90;;;;;;5083833;28;20208;-45
